Time;durP1;ratioP1;P1;durP2;ratioP2;P2;SDS_P1;SDS_P2;PMS_P1;PMS_P2;Temp;Humidity;BMP_temperature;BMP_pressure;BME280_temperature;BME280_humidity;BME280_pressure;Samples;Min_cycle;Max_cycle;Signal;HPM_P1;HPM_P2
2021/06/28 00:00:28;;;;;;;4.80;2.75;;;21.40;99.90;;;;;;5052696;28;20080;-79
2021/06/28 00:02:56;;;;;;;5.43;2.80;;;21.40;99.90;;;;;;5052318;28;20041;-79
2021/06/28 00:05:24;;;;;;;3.83;2.53;;;21.30;99.90;;;;;;5034687;28;20403;-79
2021/06/28 00:07:52;;;;;;;4.47;2.80;;;21.30;99.90;;;;;;5034918;28;20079;-79
2021/06/28 00:10:22;;;;;;;4.68;2.63;;;21.40;99.90;;;;;;5049430;28;20124;-78
2021/06/28 00:12:50;;;;;;;3.60;2.50;;;21.30;99.90;;;;;;5052522;28;20113;-80
2021/06/28 00:15:21;;;;;;;4.43;2.75;;;21.30;99.90;;;;;;5052484;28;20135;-80
2021/06/28 00:17:51;;;;;;;4.95;2.70;;;21.30;99.90;;;;;;5047024;28;20072;-78
2021/06/28 00:20:19;;;;;;;4.28;2.55;;;21.20;99.90;;;;;;5064674;28;20072;-79
2021/06/28 00:22:47;;;;;;;5.10;3.00;;;21.20;99.90;;;;;;5054779;28;20049;-79
2021/06/28 00:25:19;;;;;;;5.95;2.50;;;21.20;99.90;;;;;;5052246;28;20132;-77
2021/06/28 00:27:47;;;;;;;3.88;2.40;;;21.20;99.90;;;;;;5051942;28;20136;-78
2021/06/28 00:30:20;;;;;;;4.85;2.28;;;21.20;99.90;;;;;;5052054;28;20133;-76
2021/06/28 00:32:48;;;;;;;3.70;2.28;;;21.20;99.90;;;;;;5052323;28;20091;-78
2021/06/28 00:35:18;;;;;;;4.30;2.10;;;21.20;99.90;;;;;;5052087;28;20482;-79
2021/06/28 00:37:46;;;;;;;4.05;2.20;;;21.30;99.90;;;;;;5052345;28;20072;-79
2021/06/28 00:40:17;;;;;;;3.30;1.90;;;21.30;99.90;;;;;;5036288;28;20076;-79
2021/06/28 00:42:45;;;;;;;3.50;2.03;;;21.30;99.90;;;;;;5056529;28;20144;-79
2021/06/28 00:45:21;;;;;;;3.53;1.90;;;21.40;99.90;;;;;;5056081;28;20139;-79
2021/06/28 00:47:49;;;;;;;3.45;2.20;;;21.40;99.90;;;;;;5055678;28;20136;-79
2021/06/28 00:50:18;;;;;;;4.53;1.90;;;21.50;99.90;;;;;;5038381;28;20143;-79
2021/06/28 00:52:48;;;;;;;3.42;1.90;;;21.50;99.90;;;;;;5056228;28;20128;-78
2021/06/28 00:55:18;;;;;;;3.80;2.20;;;21.60;99.90;;;;;;5047634;28;20450;-79
2021/06/28 00:57:46;;;;;;;3.58;2.20;;;21.60;99.90;;;;;;5018639;28;20040;-78
2021/06/28 01:00:15;;;;;;;3.15;1.92;;;21.60;99.90;;;;;;5047174;28;20053;-79
2021/06/28 01:02:42;;;;;;;3.20;2.00;;;21.60;99.90;;;;;;5056008;28;20120;-78
2021/06/28 01:05:14;;;;;;;4.60;1.88;;;21.50;99.90;;;;;;5055871;28;20484;-78
2021/06/28 01:07:42;;;;;;;3.83;2.10;;;21.50;99.90;;;;;;5055808;28;20558;-79
2021/06/28 01:10:12;;;;;;;3.35;1.98;;;21.50;99.90;;;;;;5055165;28;20569;-78
2021/06/28 01:12:41;;;;;;;3.95;2.17;;;21.50;99.90;;;;;;5056031;28;20072;-79
2021/06/28 01:15:10;;;;;;;3.67;2.15;;;21.50;99.90;;;;;;5055408;28;20486;-78
2021/06/28 01:17:37;;;;;;;3.55;1.90;;;21.40;99.90;;;;;;5075539;28;20052;-81
2021/06/28 01:20:09;;;;;;;3.40;1.90;;;21.50;99.90;;;;;;5063020;28;20073;-79
2021/06/28 01:22:39;;;;;;;4.22;1.95;;;21.40;99.90;;;;;;5014929;28;20133;-79
2021/06/28 01:25:12;;;;;;;3.08;1.60;;;21.40;99.90;;;;;;5037880;28;20139;-79
2021/06/28 01:27:40;;;;;;;3.55;1.80;;;21.40;99.90;;;;;;5055726;28;20132;-78
2021/06/28 01:30:11;;;;;;;3.20;1.98;;;21.30;99.90;;;;;;5055361;28;20132;-79
2021/06/28 01:32:40;;;;;;;4.20;2.17;;;21.40;99.90;;;;;;5055057;28;20128;-79
2021/06/28 01:35:09;;;;;;;4.80;2.15;;;21.40;99.90;;;;;;5054706;28;20045;-79
2021/06/28 01:37:36;;;;;;;3.65;2.28;;;21.30;99.90;;;;;;5054847;28;20123;-79
2021/06/28 01:40:12;;;;;;;3.35;1.90;;;21.30;99.90;;;;;;5055259;28;20080;-79
2021/06/28 01:42:39;;;;;;;3.13;1.80;;;21.20;99.90;;;;;;5048775;28;20600;-78
2021/06/28 01:45:10;;;;;;;3.00;1.70;;;21.20;99.90;;;;;;5054871;28;20467;-78
2021/06/28 01:47:37;;;;;;;4.65;1.90;;;21.20;99.90;;;;;;5055139;28;20087;-78
2021/06/28 01:50:07;;;;;;;3.25;1.70;;;21.20;99.90;;;;;;5054763;28;20143;-78
2021/06/28 01:52:34;;;;;;;4.38;2.45;;;21.30;99.90;;;;;;5047637;28;20045;-80
2021/06/28 01:55:02;;;;;;;4.78;2.10;;;21.30;99.90;;;;;;5054760;28;20553;-79
2021/06/28 01:57:30;;;;;;;3.50;1.95;;;21.20;99.90;;;;;;5054603;28;20557;-80
2021/06/28 01:59:57;;;;;;;4.43;2.03;;;21.30;99.90;;;;;;5055067;28;20132;-79
2021/06/28 02:02:24;;;;;;;3.78;2.38;;;21.20;99.90;;;;;;5054674;28;20045;-79
2021/06/28 02:04:51;;;;;;;4.38;2.65;;;21.20;99.90;;;;;;5037490;28;20135;-78
2021/06/28 02:07:18;;;;;;;4.38;2.17;;;21.20;99.90;;;;;;5037007;28;20051;-79
2021/06/28 02:09:45;;;;;;;3.70;2.00;;;21.00;99.90;;;;;;5054373;28;20045;-79
2021/06/28 02:12:13;;;;;;;3.50;1.85;;;20.90;99.90;;;;;;5054091;28;20454;-79
2021/06/28 02:14:41;;;;;;;3.03;1.58;;;20.90;99.90;;;;;;5054542;28;20465;-79
2021/06/28 02:17:08;;;;;;;2.80;1.60;;;20.90;99.90;;;;;;5036695;28;20123;-79
2021/06/28 02:19:35;;;;;;;3.45;1.90;;;20.90;99.90;;;;;;5054655;28;20140;-79
2021/06/28 02:22:03;;;;;;;4.72;1.90;;;21.00;99.90;;;;;;5054492;28;20451;-79
2021/06/28 02:24:30;;;;;;;3.35;1.88;;;21.00;99.90;;;;;;5054415;28;20124;-79
2021/06/28 02:26:57;;;;;;;3.63;1.88;;;21.00;99.90;;;;;;5054401;28;20077;-79
2021/06/28 02:29:24;;;;;;;5.13;2.20;;;21.00;99.90;;;;;;5054149;28;20136;-78
2021/06/28 02:31:53;;;;;;;3.55;2.10;;;21.00;99.90;;;;;;5036513;28;20831;-79
2021/06/28 02:34:20;;;;;;;3.67;2.35;;;21.10;99.90;;;;;;5054711;28;20044;-78
2021/06/28 02:36:47;;;;;;;6.70;2.75;;;21.00;99.90;;;;;;5057685;28;20091;-78
2021/06/28 02:39:15;;;;;;;4.70;2.33;;;20.90;99.90;;;;;;5055061;28;20127;-78
2021/06/28 02:41:42;;;;;;;3.63;2.03;;;20.80;99.90;;;;;;5039889;28;20048;-80
2021/06/28 02:44:09;;;;;;;4.25;2.05;;;20.70;99.90;;;;;;5057932;28;20135;-77
2021/06/28 02:46:36;;;;;;;3.20;2.05;;;20.70;99.90;;;;;;5055685;28;20127;-79
2021/06/28 02:49:05;;;;;;;3.78;2.20;;;20.70;99.90;;;;;;5060456;28;20136;-79
2021/06/28 02:51:32;;;;;;;4.72;1.90;;;20.70;99.90;;;;;;5046421;28;20136;-79
2021/06/28 02:53:59;;;;;;;3.85;2.00;;;20.70;99.90;;;;;;5053803;28;20056;-79
2021/06/28 02:56:26;;;;;;;7.60;2.45;;;20.70;99.90;;;;;;5035588;28;20526;-79
2021/06/28 02:58:56;;;;;;;6.82;2.30;;;20.80;99.90;;;;;;5053528;28;20099;-79
2021/06/28 03:01:58;;;;;;;3.45;2.00;;;20.80;99.90;;;;;;5056085;28;20124;-80
2021/06/28 03:04:26;;;;;;;4.07;2.42;;;20.80;99.90;;;;;;5061661;28;20102;-80
2021/06/28 03:06:53;;;;;;;5.50;2.20;;;20.70;99.90;;;;;;5038326;28;20442;-80
2021/06/28 03:09:20;;;;;;;4.70;2.50;;;20.70;99.90;;;;;;5058215;28;20049;-79
2021/06/28 03:11:48;;;;;;;7.00;2.83;;;20.70;99.90;;;;;;5050948;28;20582;-80
2021/06/28 03:14:15;;;;;;;4.38;2.53;;;20.60;99.90;;;;;;5051140;28;20156;-78
2021/06/28 03:16:42;;;;;;;5.50;2.58;;;20.50;99.90;;;;;;5033570;28;20135;-78
2021/06/28 03:19:09;;;;;;;4.28;2.42;;;20.40;99.90;;;;;;5050995;28;20124;-78
2021/06/28 03:21:37;;;;;;;4.65;2.47;;;20.30;99.90;;;;;;5033285;28;20049;-78
2021/06/28 03:24:05;;;;;;;4.70;2.60;;;20.20;99.90;;;;;;5050863;28;20131;-79
2021/06/28 03:26:33;;;;;;;4.15;2.40;;;20.10;99.90;;;;;;5043408;28;20132;-79
2021/06/28 03:29:00;;;;;;;4.25;2.22;;;20.10;99.90;;;;;;5051256;28;20045;-79
2021/06/28 03:31:32;;;;;;;5.00;2.70;;;20.10;99.90;;;;;;5050841;28;20127;-78
2021/06/28 03:34:02;;;;;;;3.55;2.28;;;20.00;99.90;;;;;;5061623;28;20120;-79
2021/06/28 03:36:29;;;;;;;3.83;2.10;;;20.00;99.90;;;;;;5051648;28;20143;-78
2021/06/28 03:38:57;;;;;;;5.88;2.25;;;20.10;99.90;;;;;;5051059;28;20091;-79
2021/06/28 03:41:24;;;;;;;3.78;1.98;;;20.00;99.90;;;;;;5050485;28;20581;-78
2021/06/28 03:43:51;;;;;;;3.60;2.13;;;20.10;99.90;;;;;;5050505;28;20079;-78
2021/06/28 03:46:18;;;;;;;4.40;2.10;;;20.20;99.90;;;;;;5050484;28;20080;-78
2021/06/28 03:48:46;;;;;;;3.38;2.00;;;20.20;99.90;;;;;;5050568;28;20081;-80
2021/06/28 03:51:13;;;;;;;3.15;1.85;;;20.20;99.90;;;;;;5050268;28;20057;-79
2021/06/28 03:53:41;;;;;;;5.07;2.28;;;20.30;99.90;;;;;;5050567;28;20045;-79
2021/06/28 03:56:09;;;;;;;4.80;2.10;;;20.30;99.90;;;;;;5050015;28;20517;-79
2021/06/28 03:58:38;;;;;;;3.55;2.15;;;20.40;99.90;;;;;;5050978;28;20132;-79
2021/06/28 04:01:06;;;;;;;3.72;1.98;;;20.40;99.90;;;;;;5050794;28;20049;-79
2021/06/28 04:03:35;;;;;;;3.35;2.20;;;20.40;99.90;;;;;;5043261;28;20055;-79
2021/06/28 04:06:04;;;;;;;3.72;2.22;;;20.50;99.90;;;;;;5050340;28;20052;-79
2021/06/28 04:08:31;;;;;;;3.42;1.95;;;20.50;99.90;;;;;;5043540;28;20083;-78
2021/06/28 04:10:59;;;;;;;4.25;2.13;;;20.60;99.90;;;;;;5033953;28;20047;-78
2021/06/28 04:13:28;;;;;;;3.47;1.92;;;20.60;99.90;;;;;;5031341;28;20144;-79
2021/06/28 04:15:55;;;;;;;4.05;2.20;;;20.60;99.90;;;;;;5023874;28;20577;-79
2021/06/28 04:18:22;;;;;;;4.18;2.40;;;20.60;99.90;;;;;;5024243;28;20091;-79
2021/06/28 04:20:50;;;;;;;3.90;2.40;;;20.60;99.90;;;;;;5050598;28;20059;-79
2021/06/28 04:23:18;;;;;;;4.20;2.15;;;20.60;99.90;;;;;;5050071;28;20128;-79
2021/06/28 04:25:45;;;;;;;3.47;1.88;;;20.70;99.90;;;;;;5050276;28;20059;-79
2021/06/28 04:28:12;;;;;;;3.90;2.22;;;20.70;99.90;;;;;;5050007;28;20068;-79
2021/06/28 04:30:41;;;;;;;3.72;2.30;;;20.70;99.90;;;;;;5049785;28;20231;-79
2021/06/28 04:33:08;;;;;;;3.65;2.10;;;20.60;99.90;;;;;;5050201;28;20129;-78
2021/06/28 04:35:35;;;;;;;5.20;2.58;;;20.70;99.90;;;;;;5050271;28;20522;-79
2021/06/28 04:38:03;;;;;;;4.53;2.40;;;20.70;99.90;;;;;;5050857;28;20136;-78
2021/06/28 04:40:31;;;;;;;5.20;2.40;;;20.70;99.90;;;;;;5032890;28;20179;-79
2021/06/28 04:42:59;;;;;;;3.60;2.20;;;20.80;99.90;;;;;;5050457;28;20131;-78
2021/06/28 04:45:27;;;;;;;4.10;2.40;;;20.80;99.90;;;;;;5050795;28;20088;-78
2021/06/28 04:47:58;;;;;;;3.50;2.30;;;20.80;99.90;;;;;;5049122;28;20052;-78
2021/06/28 04:50:26;;;;;;;3.28;2.25;;;20.80;99.90;;;;;;5032798;28;20451;-78
2021/06/28 04:52:54;;;;;;;3.47;2.10;;;20.80;99.90;;;;;;5050492;28;20080;-79
2021/06/28 04:55:22;;;;;;;4.20;2.25;;;20.80;99.90;;;;;;5032937;28;20077;-79
2021/06/28 04:57:50;;;;;;;4.18;2.40;;;20.90;99.90;;;;;;5050425;28;20176;-78
2021/06/28 05:00:21;;;;;;;3.50;2.17;;;20.90;99.90;;;;;;5050436;28;20041;-79
2021/06/28 05:02:48;;;;;;;3.25;2.30;;;20.90;99.90;;;;;;5033142;28;20161;-80
2021/06/28 05:05:18;;;;;;;4.13;2.50;;;20.90;99.90;;;;;;5050486;28;20068;-78
2021/06/28 05:07:46;;;;;;;3.47;2.05;;;20.90;99.90;;;;;;5050443;28;20091;-79
2021/06/28 05:10:15;;;;;;;3.80;2.38;;;21.00;99.90;;;;;;5050584;28;20088;-78
2021/06/28 05:12:42;;;;;;;5.65;2.42;;;21.00;99.90;;;;;;5050840;28;20068;-79
2021/06/28 05:15:12;;;;;;;3.90;2.80;;;21.00;99.90;;;;;;5050045;28;20132;-78
2021/06/28 05:17:39;;;;;;;5.85;2.40;;;21.10;99.90;;;;;;5033043;28;20463;-80
2021/06/28 05:20:09;;;;;;;4.20;2.85;;;21.10;99.90;;;;;;5032410;28;20521;-80
2021/06/28 05:22:38;;;;;;;4.15;2.70;;;21.10;99.90;;;;;;5051452;28;20128;-79
2021/06/28 05:25:07;;;;;;;4.43;2.50;;;21.20;99.90;;;;;;5052242;28;20045;-78
2021/06/28 05:27:34;;;;;;;4.70;2.95;;;21.20;99.90;;;;;;5055849;28;20128;-78
2021/06/28 05:30:03;;;;;;;4.57;2.65;;;21.20;99.90;;;;;;5056020;28;20051;-78
2021/06/28 05:32:31;;;;;;;6.00;2.90;;;21.30;99.90;;;;;;5055867;28;20045;-78
2021/06/28 05:34:58;;;;;;;5.05;3.05;;;21.30;99.90;;;;;;5055658;28;20136;-79
2021/06/28 05:37:25;;;;;;;6.13;2.80;;;21.30;99.90;;;;;;5055671;28;20135;-78
2021/06/28 05:39:54;;;;;;;5.55;3.28;;;21.40;99.90;;;;;;5065927;28;20045;-79
2021/06/28 05:42:21;;;;;;;7.25;3.55;;;21.40;99.90;;;;;;5038820;28;20128;-78
2021/06/28 05:44:48;;;;;;;5.15;3.30;;;21.40;99.90;;;;;;5055758;28;20124;-77
2021/06/28 05:47:16;;;;;;;4.68;3.05;;;21.50;99.90;;;;;;5038711;28;20081;-79
2021/06/28 05:49:46;;;;;;;4.60;2.80;;;21.50;99.90;;;;;;5055228;28;20045;-78
2021/06/28 05:52:17;;;;;;;5.38;2.80;;;21.50;99.90;;;;;;5055547;28;20080;-78
2021/06/28 05:54:44;;;;;;;5.65;2.50;;;21.50;99.90;;;;;;5055236;28;20057;-79
2021/06/28 05:57:13;;;;;;;5.72;3.45;;;21.60;99.90;;;;;;5021498;28;20041;-78
2021/06/28 05:59:40;;;;;;;6.57;3.00;;;21.70;99.90;;;;;;5055774;28;20553;-79
2021/06/28 06:02:08;;;;;;;5.20;2.47;;;21.70;99.90;;;;;;5054705;28;20131;-79
2021/06/28 06:04:35;;;;;;;4.63;2.20;;;21.70;99.90;;;;;;5055634;28;20073;-78
2021/06/28 06:07:02;;;;;;;6.47;2.40;;;21.80;99.90;;;;;;5055306;28;20084;-77
2021/06/28 06:09:29;;;;;;;4.68;2.38;;;21.80;99.90;;;;;;5055473;28;20087;-76
2021/06/28 06:11:56;;;;;;;4.38;2.20;;;21.90;99.90;;;;;;5054974;28;20084;-76
2021/06/28 06:14:25;;;;;;;4.82;2.70;;;21.90;99.90;;;;;;5037792;28;20128;-78
2021/06/28 06:16:52;;;;;;;6.03;2.97;;;22.10;99.90;;;;;;5054478;28;20143;-77
2021/06/28 06:19:19;;;;;;;4.18;2.50;;;22.10;99.90;;;;;;5054121;28;20053;-75
2021/06/28 06:21:46;;;;;;;6.53;2.83;;;22.20;99.90;;;;;;5054905;28;20129;-76
2021/06/28 06:24:13;;;;;;;4.80;2.45;;;22.20;99.90;;;;;;5055111;28;20140;-75
2021/06/28 06:26:40;;;;;;;3.80;2.40;;;22.20;99.90;;;;;;5055157;28;20040;-77
2021/06/28 06:29:08;;;;;;;4.43;2.15;;;22.30;99.90;;;;;;5054821;28;20131;-76
2021/06/28 06:31:36;;;;;;;4.47;2.30;;;22.30;99.90;;;;;;5054908;28;20068;-78
2021/06/28 06:34:03;;;;;;;4.47;2.80;;;22.40;99.80;;;;;;5054601;28;20128;-78
2021/06/28 06:36:30;;;;;;;5.57;2.20;;;22.50;99.30;;;;;;5062179;28;20112;-78
2021/06/28 06:38:58;;;;;;;3.30;1.85;;;22.50;99.50;;;;;;5064814;28;20045;-76
2021/06/28 06:41:25;;;;;;;4.18;2.22;;;22.50;99.20;;;;;;5056605;28;20542;-78
2021/06/28 06:43:52;;;;;;;4.32;2.28;;;22.60;99.00;;;;;;5054762;28;20108;-76
2021/06/28 06:46:19;;;;;;;3.88;2.30;;;22.60;98.80;;;;;;5054432;28;20076;-77
2021/06/28 06:48:48;;;;;;;3.72;2.30;;;22.70;99.00;;;;;;5054097;28;20051;-77
2021/06/28 06:51:17;;;;;;;4.85;2.00;;;22.60;98.80;;;;;;5054154;28;20394;-77
2021/06/28 06:53:44;;;;;;;4.35;2.17;;;22.70;99.10;;;;;;5054323;28;20051;-75
2021/06/28 06:56:12;;;;;;;4.03;2.38;;;22.70;99.00;;;;;;5054582;28;20076;-77
2021/06/28 06:58:39;;;;;;;3.90;2.17;;;22.70;98.90;;;;;;5054120;28;20091;-77
2021/06/28 07:01:09;;;;;;;3.30;1.95;;;22.80;98.90;;;;;;5054153;28;20132;-74
2021/06/28 07:03:36;;;;;;;3.78;2.30;;;22.80;99.20;;;;;;5054203;28;20045;-77
2021/06/28 07:06:05;;;;;;;4.75;2.40;;;22.90;98.80;;;;;;5054557;28;20041;-78
2021/06/28 07:08:33;;;;;;;3.95;2.40;;;22.90;98.60;;;;;;5054271;28;20175;-77
2021/06/28 07:11:01;;;;;;;3.63;2.20;;;22.90;98.70;;;;;;5054059;28;20499;-79
2021/06/28 07:13:28;;;;;;;5.65;2.75;;;22.90;98.60;;;;;;5054058;28;20048;-79
2021/06/28 07:15:56;;;;;;;3.85;2.33;;;22.90;98.60;;;;;;5054050;28;20045;-78
2021/06/28 07:18:23;;;;;;;5.45;2.67;;;22.90;98.80;;;;;;5053714;28;20123;-77
2021/06/28 07:20:50;;;;;;;3.30;2.30;;;23.00;98.50;;;;;;5054057;28;20056;-76
2021/06/28 07:23:19;;;;;;;3.72;1.90;;;23.00;98.50;;;;;;5053999;28;20131;-77
2021/06/28 07:25:46;;;;;;;3.95;2.20;;;23.00;98.40;;;;;;5054072;28;20049;-77
2021/06/28 07:28:13;;;;;;;3.65;2.13;;;23.00;98.10;;;;;;5053671;28;20047;-76
2021/06/28 07:30:41;;;;;;;3.25;2.00;;;23.00;98.20;;;;;;5053748;28;20469;-77
2021/06/28 07:33:08;;;;;;;3.67;2.20;;;23.10;98.50;;;;;;5067088;28;20478;-77
2021/06/28 07:35:35;;;;;;;3.72;2.28;;;23.10;98.70;;;;;;5053512;28;20546;-77
2021/06/28 07:38:03;;;;;;;3.40;2.00;;;23.20;98.70;;;;;;5053721;28;20127;-77
2021/06/28 07:40:31;;;;;;;5.50;2.40;;;23.30;98.70;;;;;;5053666;28;20128;-75
2021/06/28 07:42:58;;;;;;;4.97;2.40;;;23.40;98.40;;;;;;5053550;28;20144;-78
2021/06/28 07:45:25;;;;;;;3.70;2.10;;;23.30;98.30;;;;;;5053796;28;20087;-75
2021/06/28 07:47:53;;;;;;;4.68;2.40;;;23.40;98.50;;;;;;5053069;28;20124;-78
2021/06/28 07:50:20;;;;;;;3.60;2.45;;;23.40;98.50;;;;;;5052948;28;20060;-79
2021/06/28 07:52:48;;;;;;;6.75;2.70;;;23.50;98.30;;;;;;5053354;28;20046;-76
2021/06/28 07:55:15;;;;;;;3.92;2.38;;;23.50;97.90;;;;;;5053477;28;20133;-79
2021/06/28 07:57:44;;;;;;;3.63;2.30;;;23.50;97.70;;;;;;5053100;28;20504;-77
2021/06/28 08:00:14;;;;;;;3.60;2.22;;;23.60;97.90;;;;;;5053354;28;20124;-77
2021/06/28 08:02:42;;;;;;;3.90;2.00;;;23.60;97.90;;;;;;5051455;28;20127;-76
2021/06/28 08:05:10;;;;;;;5.05;2.13;;;23.70;97.90;;;;;;5059953;28;20112;-79
2021/06/28 08:07:38;;;;;;;3.83;2.10;;;23.70;97.50;;;;;;5015460;28;20081;-77
2021/06/28 08:10:09;;;;;;;3.53;2.20;;;23.80;97.30;;;;;;5033165;28;20127;-80
2021/06/28 08:12:36;;;;;;;3.83;1.90;;;23.90;97.40;;;;;;5032994;28;20124;-79
2021/06/28 08:15:06;;;;;;;3.95;2.50;;;23.90;97.20;;;;;;5033033;28;20497;-77
2021/06/28 08:17:33;;;;;;;4.47;2.38;;;24.00;96.70;;;;;;5032931;28;20141;-79
2021/06/28 08:20:00;;;;;;;3.95;2.33;;;24.00;96.60;;;;;;5016612;28;20077;-81
2021/06/28 08:22:27;;;;;;;4.35;2.65;;;24.10;96.70;;;;;;5033053;28;20128;-80
2021/06/28 08:24:54;;;;;;;4.65;3.00;;;24.20;96.50;;;;;;5046909;28;20051;-77
2021/06/28 08:27:22;;;;;;;4.38;2.35;;;24.30;96.30;;;;;;5049240;28;20136;-79
2021/06/28 08:29:49;;;;;;;3.67;2.15;;;24.40;96.20;;;;;;5012394;28;20049;-79
2021/06/28 08:32:18;;;;;;;4.63;2.13;;;24.40;96.10;;;;;;5030563;28;20045;-77
2021/06/28 08:34:45;;;;;;;3.63;2.20;;;24.50;96.00;;;;;;5033620;28;20450;-78
2021/06/28 08:37:12;;;;;;;5.00;2.22;;;24.60;95.80;;;;;;5030304;28;20148;-81
2021/06/28 08:39:39;;;;;;;3.90;2.28;;;24.60;95.60;;;;;;5030320;28;20141;-78
2021/06/28 08:42:08;;;;;;;3.35;1.98;;;24.70;95.40;;;;;;5030595;28;20077;-80
2021/06/28 08:44:36;;;;;;;3.85;2.10;;;24.70;95.30;;;;;;5026600;28;20128;-77
2021/06/28 08:47:05;;;;;;;4.05;2.05;;;24.70;95.10;;;;;;5050193;28;20243;-78
2021/06/28 08:49:34;;;;;;;4.03;2.28;;;24.80;94.90;;;;;;5049967;28;20087;-79
2021/06/28 08:52:02;;;;;;;4.70;2.30;;;24.80;94.60;;;;;;5049517;28;20063;-80
2021/06/28 08:54:29;;;;;;;3.95;2.03;;;24.80;94.80;;;;;;5050106;28;20049;-79
2021/06/28 08:56:57;;;;;;;3.10;1.70;;;24.90;94.10;;;;;;5049636;28;20135;-78
2021/06/28 08:59:25;;;;;;;3.25;1.80;;;24.90;93.90;;;;;;5049644;28;20087;-79
2021/06/28 09:01:52;;;;;;;3.67;2.08;;;25.00;93.70;;;;;;5052775;28;20135;-80
2021/06/28 09:04:21;;;;;;;4.07;1.80;;;25.00;93.40;;;;;;5053324;28;20052;-79
2021/06/28 09:06:49;;;;;;;3.70;1.92;;;25.10;93.00;;;;;;5052699;28;20136;-78
2021/06/28 09:09:22;;;;;;;9.13;2.40;;;25.10;93.00;;;;;;5054215;28;20127;-77
2021/06/28 09:11:52;;;;;;;2.90;1.63;;;25.20;92.90;;;;;;5053295;28;20152;-78
2021/06/28 09:14:24;;;;;;;2.90;1.67;;;25.30;93.10;;;;;;5035871;28;20063;-80
2021/06/28 09:16:51;;;;;;;3.70;1.70;;;25.30;93.10;;;;;;5053492;28;20139;-79
2021/06/28 09:19:22;;;;;;;2.97;1.70;;;25.30;93.20;;;;;;5053890;28;20135;-75
2021/06/28 09:21:55;;;;;;;3.80;2.00;;;25.40;92.80;;;;;;5050126;28;20098;-78
2021/06/28 09:24:29;;;;;;;3.78;2.00;;;25.50;92.40;;;;;;5052231;28;20056;-79
2021/06/28 09:27:20;;;;;;;3.85;2.10;;;25.60;92.30;;;;;;5052557;28;20061;-80
2021/06/28 09:29:52;;;;;;;3.95;1.80;;;25.60;92.10;;;;;;5052333;28;20045;-78
2021/06/28 09:32:21;;;;;;;2.92;1.55;;;25.70;91.70;;;;;;5052192;28;20068;-80
2021/06/28 09:34:51;;;;;;;4.32;2.25;;;25.80;91.00;;;;;;5051411;28;20056;-80
2021/06/28 09:37:24;;;;;;;3.25;1.80;;;25.90;90.70;;;;;;5051316;28;20067;-79
2021/06/28 09:39:53;;;;;;;3.60;2.08;;;25.90;90.50;;;;;;5051774;28;20049;-80
2021/06/28 09:42:22;;;;;;;3.45;2.30;;;25.90;90.50;;;;;;5051753;28;20178;-79
2021/06/28 09:44:55;;;;;;;3.50;1.90;;;26.00;90.80;;;;;;5051689;28;20652;-79
2021/06/28 09:47:25;;;;;;;3.45;1.80;;;26.00;90.30;;;;;;5051035;28;20194;-78
2021/06/28 09:50:04;;;;;;;2.95;1.60;;;26.00;90.20;;;;;;5063499;28;20379;-79
2021/06/28 09:52:36;;;;;;;3.38;1.90;;;26.00;90.20;;;;;;5043473;28;20131;-81
2021/06/28 09:55:23;;;;;;;3.85;1.90;;;26.10;90.20;;;;;;5051123;28;20041;-80
2021/06/28 09:58:12;;;;;;;3.42;1.50;;;26.10;89.50;;;;;;5045372;28;20136;-81
2021/06/28 10:00:43;;;;;;;3.10;1.85;;;26.20;88.80;;;;;;5043055;28;20159;-79
2021/06/28 10:03:28;;;;;;;2.75;1.63;;;26.30;88.70;;;;;;5050864;28;20052;-77
2021/06/28 10:06:04;;;;;;;3.00;1.58;;;26.30;89.80;;;;;;5050660;28;20080;-79
2021/06/28 10:08:37;;;;;;;2.92;1.75;;;26.40;90.20;;;;;;5050746;28;20503;-78
2021/06/28 10:11:19;;;;;;;3.25;1.67;;;26.40;90.20;;;;;;5051059;28;20049;-79
2021/06/28 10:13:52;;;;;;;4.32;1.63;;;26.50;90.10;;;;;;5050161;28;20092;-79
2021/06/28 10:16:21;;;;;;;2.80;1.50;;;26.60;90.00;;;;;;5050338;28;20612;-78
2021/06/28 10:18:49;;;;;;;3.17;1.60;;;26.60;90.20;;;;;;5050769;28;20147;-78
2021/06/28 10:21:16;;;;;;;3.25;1.80;;;26.60;90.20;;;;;;5050528;28;20056;-80
2021/06/28 10:23:45;;;;;;;3.72;1.90;;;26.70;90.20;;;;;;5032876;28;20183;-79
2021/06/28 10:26:12;;;;;;;3.45;1.85;;;26.80;90.30;;;;;;5048224;28;20132;-79
2021/06/28 10:28:41;;;;;;;3.17;2.00;;;26.80;90.20;;;;;;5050325;28;20504;-79
2021/06/28 10:31:10;;;;;;;3.30;1.60;;;26.80;90.20;;;;;;5032854;28;20452;-79
2021/06/28 10:33:39;;;;;;;2.67;1.55;;;26.90;90.00;;;;;;5049125;28;20264;-80
2021/06/28 10:36:11;;;;;;;3.30;1.70;;;26.80;89.30;;;;;;5050702;28;20055;-79
2021/06/28 10:38:50;;;;;;;3.13;1.70;;;26.90;89.60;;;;;;5050303;28;20051;-80
2021/06/28 10:41:39;;;;;;;2.83;1.60;;;26.90;90.40;;;;;;5048849;28;20083;-77
2021/06/28 10:44:09;;;;;;;2.70;1.60;;;27.00;90.20;;;;;;5048566;28;20089;-80
2021/06/28 10:46:39;;;;;;;4.90;1.80;;;27.00;90.10;;;;;;5031202;28;20136;-79
2021/06/28 10:49:07;;;;;;;3.30;1.63;;;27.00;89.80;;;;;;5034193;28;20068;-77
2021/06/28 10:51:42;;;;;;;2.80;1.40;;;27.00;89.10;;;;;;5039842;28;20232;-78
2021/06/28 10:54:15;;;;;;;2.85;1.50;;;27.00;89.60;;;;;;5035131;28;20133;-77
2021/06/28 10:56:57;;;;;;;2.72;1.70;;;27.00;89.70;;;;;;5036086;28;20309;-79
2021/06/28 10:59:28;;;;;;;3.45;1.77;;;27.00;89.70;;;;;;5042936;28;20060;-79
2021/06/28 11:02:04;;;;;;;2.95;1.70;;;27.00;89.30;;;;;;5042760;28;20547;-78
2021/06/28 11:04:34;;;;;;;3.00;1.70;;;27.00;89.20;;;;;;5032864;28;20046;-78
2021/06/28 11:07:09;;;;;;;3.63;1.90;;;27.10;88.70;;;;;;5048857;28;20140;-79
2021/06/28 11:09:41;;;;;;;3.15;1.60;;;27.10;88.70;;;;;;5050388;28;20080;-78
2021/06/28 11:12:22;;;;;;;2.75;1.58;;;27.10;88.50;;;;;;5050267;28;20092;-77
2021/06/28 11:14:55;;;;;;;2.80;1.52;;;27.10;88.10;;;;;;5050253;28;20469;-79
2021/06/28 11:17:28;;;;;;;2.85;1.70;;;27.20;88.60;;;;;;5049800;28;20135;-77
2021/06/28 11:20:02;;;;;;;2.70;1.65;;;27.30;89.30;;;;;;5047712;28;20041;-78
2021/06/28 11:22:49;;;;;;;3.00;1.73;;;27.30;88.70;;;;;;5041069;28;20407;-78
2021/06/28 11:25:25;;;;;;;2.65;1.58;;;27.40;88.30;;;;;;5047907;28;20124;-78
2021/06/28 11:28:21;;;;;;;3.17;1.80;;;27.50;88.60;;;;;;5049568;28;20053;-77
2021/06/28 11:31:02;;;;;;;2.63;1.65;;;27.60;87.80;;;;;;5048323;28;20131;-79
2021/06/28 11:33:48;;;;;;;3.10;2.03;;;27.60;86.70;;;;;;5048898;28;20085;-80
2021/06/28 11:36:33;;;;;;;3.03;1.60;;;27.70;86.00;;;;;;5049379;28;20045;-78
2021/06/28 11:39:02;;;;;;;3.90;2.00;;;27.70;86.10;;;;;;5049898;28;20474;-79
2021/06/28 11:41:31;;;;;;;3.55;1.90;;;27.80;85.30;;;;;;5049160;28;20152;-78
2021/06/28 11:44:00;;;;;;;2.50;1.60;;;27.80;85.10;;;;;;5049130;28;20091;-78
2021/06/28 11:46:47;;;;;;;4.13;1.92;;;27.90;85.30;;;;;;5049265;28;20052;-78
2021/06/28 11:49:25;;;;;;;3.25;1.73;;;28.00;85.50;;;;;;5049005;28;20537;-78
2021/06/28 11:51:53;;;;;;;3.45;1.67;;;28.10;85.80;;;;;;5049428;28;20127;-79
2021/06/28 11:54:23;;;;;;;3.13;1.80;;;28.20;85.70;;;;;;5049276;28;20814;-80
2021/06/28 11:56:56;;;;;;;3.55;1.67;;;28.30;85.00;;;;;;5048619;28;20565;-79
2021/06/28 11:59:25;;;;;;;3.72;1.88;;;28.30;83.60;;;;;;5048662;28;20084;-79
2021/06/28 12:01:55;;;;;;;2.80;1.60;;;28.40;82.40;;;;;;5049239;28;20459;-79
2021/06/28 12:04:25;;;;;;;2.60;1.60;;;28.50;82.60;;;;;;5049641;28;20136;-79
2021/06/28 12:06:54;;;;;;;4.10;2.00;;;28.60;83.00;;;;;;5049924;28;20072;-79
2021/06/28 12:09:23;;;;;;;2.85;1.77;;;28.70;82.00;;;;;;5050035;28;20053;-79
2021/06/28 12:11:55;;;;;;;2.80;1.73;;;28.90;81.90;;;;;;5049591;28;20059;-81
2021/06/28 12:14:30;;;;;;;3.42;1.63;;;29.00;81.90;;;;;;5050160;28;20140;-80
2021/06/28 12:16:58;;;;;;;4.35;1.77;;;29.10;80.40;;;;;;5048547;28;20136;-79
2021/06/28 12:19:26;;;;;;;2.78;1.60;;;29.20;78.40;;;;;;5048326;28;20466;-77
2021/06/28 12:21:53;;;;;;;3.10;1.80;;;29.20;77.80;;;;;;5047205;28;20124;-79
2021/06/28 12:24:21;;;;;;;2.88;1.55;;;29.20;78.20;;;;;;5049064;28;20124;-79
2021/06/28 12:27:17;;;;;;;3.90;1.85;;;29.30;78.20;;;;;;5048149;28;20380;-77
2021/06/28 12:29:46;;;;;;;2.70;1.70;;;29.40;78.10;;;;;;5047946;28;20132;-79
2021/06/28 12:32:21;;;;;;;3.65;1.90;;;29.50;77.20;;;;;;5029113;28;20537;-78
2021/06/28 12:34:53;;;;;;;2.90;1.65;;;29.60;76.50;;;;;;5048195;28;20490;-79
2021/06/28 12:37:27;;;;;;;2.90;1.70;;;29.60;75.90;;;;;;5051867;28;20041;-80
2021/06/28 12:39:55;;;;;;;;;;;29.60;74.70;;;;;;5026711;28;20056;-78
2021/06/28 12:42:24;;;;;;;2.67;1.50;;;29.70;74.50;;;;;;5049308;28;20015;-81
2021/06/28 12:44:53;;;;;;;2.85;1.55;;;29.80;74.40;;;;;;5052701;28;20072;-79
2021/06/28 12:47:21;;;;;;;3.30;2.00;;;30.00;74.70;;;;;;5051579;28;20127;-76
2021/06/28 12:49:49;;;;;;;3.22;1.83;;;30.00;72.30;;;;;;5051698;28;20057;-78
2021/06/28 12:52:36;;;;;;;2.80;1.50;;;30.00;71.40;;;;;;5042969;28;20052;-79
2021/06/28 12:55:27;;;;;;;2.38;1.50;;;30.10;71.60;;;;;;5032698;28;20049;-79
2021/06/28 12:58:08;;;;;;;2.90;1.60;;;30.10;70.10;;;;;;5032532;28;20045;-79
2021/06/28 13:00:38;;;;;;;3.20;1.70;;;30.20;70.00;;;;;;5032505;28;20048;-79